createdAt,value
2022-09-03T00:00:27.552Z,60.96
2022-09-03T00:02:59.267Z,61.10
2022-09-03T00:06:01.636Z,60.86
2022-09-03T00:08:44.925Z,60.66
2022-09-03T00:11:41.999Z,60.81
2022-09-03T00:14:30.548Z,60.90
2022-09-03T00:17:20.808Z,61.01
2022-09-03T00:20:07.826Z,61.38
2022-09-03T00:22:57.959Z,60.63
2022-09-03T00:25:47.179Z,60.58
2022-09-03T00:29:03.978Z,60.40
2022-09-03T00:32:09.446Z,59.89
2022-09-03T00:34:50.530Z,60.17
2022-09-03T00:37:23.489Z,60.20
2022-09-03T00:40:01.755Z,60.25
2022-09-03T00:42:59.293Z,60.20
2022-09-03T00:45:54.171Z,60.31
2022-09-03T00:48:41.737Z,60.44
2022-09-03T00:51:47.485Z,60.47
2022-09-03T00:55:00.118Z,60.59
2022-09-03T00:57:52.930Z,60.69
2022-09-03T01:00:23.870Z,60.80
2022-09-03T01:03:20.239Z,60.91
2022-09-03T01:06:25.777Z,61.08
2022-09-03T01:09:58.878Z,61.08
2022-09-03T01:12:55.282Z,61.19
2022-09-03T01:15:46.407Z,61.53
2022-09-03T01:18:43.454Z,61.47
2022-09-03T01:22:00.807Z,61.79
2022-09-03T01:24:51.581Z,61.47
2022-09-03T01:27:42.615Z,61.52
2022-09-03T01:30:20.700Z,61.48
2022-09-03T01:32:54.918Z,61.35
2022-09-03T01:35:54.828Z,61.82
2022-09-03T01:38:40.343Z,62.63
2022-09-03T01:41:47.296Z,62.60
2022-09-03T01:44:27.454Z,62.86
2022-09-03T01:47:34.811Z,63.51
2022-09-03T01:50:25.547Z,63.80
2022-09-03T01:53:27.391Z,64.78
2022-09-03T01:56:17.392Z,64.94
2022-09-03T01:59:05.024Z,65.05
2022-09-03T02:01:56.301Z,65.20
2022-09-03T02:04:29.441Z,64.95
2022-09-03T02:07:01.498Z,65.45
2022-09-03T02:09:35.308Z,65.53
2022-09-03T02:12:10.614Z,65.57
2022-09-03T02:14:41.329Z,65.73
2022-09-03T02:17:11.134Z,66.07
2022-09-03T02:19:42.237Z,65.72
2022-09-03T02:22:14.113Z,66.07
2022-09-03T02:24:51.183Z,65.86
2022-09-03T02:27:23.283Z,65.36
2022-09-03T02:29:57.976Z,65.24
2022-09-03T02:32:30.813Z,64.68
2022-09-03T02:35:00.772Z,64.01
2022-09-03T02:37:31.300Z,64.17
2022-09-03T02:40:01.752Z,64.74
2022-09-03T02:42:32.030Z,65.13
2022-09-03T02:45:14.152Z,65.08
2022-09-03T02:47:47.511Z,64.67
2022-09-03T02:50:25.865Z,64.48
2022-09-03T02:53:01.102Z,64.06
2022-09-03T02:55:30.760Z,64.49
2022-09-03T02:58:06.972Z,64.31
2022-09-03T03:00:44.784Z,65.05
2022-09-03T03:03:27.592Z,65.33
2022-09-03T03:06:06.279Z,65.75
2022-09-03T03:08:42.680Z,65.19
2022-09-03T03:11:20.509Z,64.75
2022-09-03T03:13:56.414Z,64.50
2022-09-03T03:16:40.623Z,64.74
2022-09-03T03:19:15.348Z,64.88
2022-09-03T03:21:55.465Z,64.77
2022-09-03T03:24:33.507Z,64.07
2022-09-03T03:27:14.372Z,63.97
2022-09-03T03:29:47.020Z,64.35
2022-09-03T03:32:23.724Z,65.12
2022-09-03T03:35:05.931Z,65.65
2022-09-03T03:37:45.637Z,66.74
2022-09-03T03:40:25.839Z,66.58
2022-09-03T03:43:03.638Z,66.18
2022-09-03T03:45:46.663Z,66.27
2022-09-03T03:48:23.949Z,66.55
2022-09-03T03:51:03.957Z,65.98
2022-09-03T03:54:03.126Z,66.39
2022-09-03T03:56:43.516Z,66.07
2022-09-03T03:59:28.491Z,65.44
2022-09-03T04:02:06.235Z,65.44
2022-09-03T04:04:39.788Z,65.52
2022-09-03T04:07:21.489Z,65.39
2022-09-03T04:09:53.964Z,66.16
2022-09-03T04:12:32.875Z,66.16
2022-09-03T04:15:00.004Z,66.67
2022-09-03T04:17:29.192Z,66.53
2022-09-03T04:19:56.631Z,67.35
2022-09-03T04:22:24.062Z,67.12
2022-09-03T04:24:51.293Z,67.10
2022-09-03T04:27:20.403Z,67.70
2022-09-03T04:29:49.793Z,68.37
2022-09-03T04:32:38.869Z,68.16
2022-09-03T04:35:09.827Z,67.91
2022-09-03T04:37:45.342Z,68.07
2022-09-03T04:40:12.770Z,67.95
2022-09-03T04:42:42.314Z,67.88
2022-09-03T04:45:23.507Z,67.22
2022-09-03T04:48:05.999Z,67.19
2022-09-03T04:50:36.372Z,66.77
2022-09-03T04:53:08.266Z,67.09
2022-09-03T04:55:43.501Z,67.69
2022-09-03T04:58:16.226Z,67.51
2022-09-03T05:00:48.168Z,68.04
2022-09-03T05:03:24.226Z,67.51
2022-09-03T05:06:07.416Z,67.87
2022-09-03T05:08:37.782Z,68.52
2022-09-03T05:11:11.163Z,68.66
2022-09-03T05:13:40.878Z,68.57
2022-09-03T05:16:13.431Z,69.58
2022-09-03T05:18:43.671Z,69.77
2022-09-03T05:21:23.028Z,69.56
2022-09-03T05:23:56.354Z,69.97
2022-09-03T05:26:28.097Z,69.86
2022-09-03T05:29:03.016Z,69.23
2022-09-03T05:31:34.689Z,69.35
2022-09-03T05:34:10.060Z,68.80
2022-09-03T05:36:43.080Z,68.12
2022-09-03T05:39:36.773Z,68.21
2022-09-03T05:42:30.754Z,68.22
2022-09-03T05:45:29.146Z,68.69
2022-09-03T05:48:11.357Z,68.66
2022-09-03T05:50:39.489Z,68.07
2022-09-03T05:53:30.605Z,67.59
2022-09-03T05:56:01.971Z,67.25
2022-09-03T05:58:41.327Z,67.26
2022-09-03T06:01:26.052Z,67.43
2022-09-03T06:04:06.174Z,67.57
2022-09-03T06:06:35.605Z,67.04
2022-09-03T06:09:08.390Z,66.85
2022-09-03T06:11:40.145Z,66.90
2022-09-03T06:14:13.447Z,67.06
2022-09-03T06:16:46.047Z,67.36
2022-09-03T06:19:16.239Z,66.81
2022-09-03T06:21:48.424Z,66.70
2022-09-03T06:24:21.417Z,66.94
2022-09-03T06:26:51.719Z,66.78
2022-09-03T06:29:22.204Z,67.10
2022-09-03T06:31:52.380Z,67.02
2022-09-03T06:34:24.181Z,67.08
2022-09-03T06:37:06.281Z,67.33
2022-09-03T06:39:36.740Z,67.08
2022-09-03T06:42:06.459Z,66.84
2022-09-03T06:44:37.226Z,67.87
2022-09-03T06:47:08.653Z,67.33
2022-09-03T06:49:39.390Z,66.98
2022-09-03T06:52:12.643Z,66.75
2022-09-03T06:54:42.084Z,66.71
2022-09-03T06:57:12.101Z,66.24
2022-09-03T06:59:42.222Z,66.03
2022-09-03T07:02:11.183Z,65.99
2022-09-03T07:04:40.616Z,66.58
2022-09-03T07:07:17.700Z,65.70
2022-09-03T07:09:48.496Z,65.72
2022-09-03T07:12:20.837Z,65.87
2022-09-03T07:14:54.968Z,65.61
2022-09-03T07:17:36.113Z,65.53
2022-09-03T07:20:06.529Z,65.41
2022-09-03T07:22:41.047Z,65.19
2022-09-03T07:25:11.988Z,65.09
2022-09-03T07:27:41.596Z,65.21
2022-09-03T07:30:15.948Z,65.05
2022-09-03T07:32:50.404Z,65.05
2022-09-03T07:35:22.356Z,65.05
2022-09-03T07:37:57.825Z,65.20
2022-09-03T07:40:35.600Z,64.83
2022-09-03T07:43:07.513Z,64.75
2022-09-03T07:45:35.723Z,64.43
2022-09-03T07:48:05.081Z,64.12
2022-09-03T07:50:39.861Z,64.06
2022-09-03T07:53:11.911Z,63.90
2022-09-03T07:55:51.801Z,63.96
2022-09-03T07:58:37.117Z,63.15
2022-09-03T08:01:11.575Z,62.90
2022-09-03T08:03:51.865Z,62.56
2022-09-03T08:06:31.831Z,62.59
2022-09-03T08:09:15.425Z,62.39
2022-09-03T08:11:53.183Z,62.46
2022-09-03T08:14:24.450Z,61.86
2022-09-03T08:16:58.499Z,61.53
2022-09-03T08:19:26.713Z,61.47
2022-09-03T08:22:00.911Z,61.07
2022-09-03T08:24:34.971Z,60.28
2022-09-03T08:27:09.354Z,60.02
2022-09-03T08:29:44.302Z,59.89
2022-09-03T08:32:24.393Z,59.72
2022-09-03T08:34:53.833Z,59.48
2022-09-03T08:37:39.156Z,59.49
2022-09-03T08:40:14.842Z,59.18
2022-09-03T08:43:09.762Z,59.26
2022-09-03T08:45:51.764Z,59.39
2022-09-03T08:48:25.868Z,59.49
2022-09-03T08:51:08.700Z,59.26
2022-09-03T08:54:09.277Z,59.61
2022-09-03T08:56:46.740Z,59.41
2022-09-03T08:59:30.074Z,59.54
2022-09-03T09:02:10.046Z,59.25
2022-09-03T09:05:21.394Z,59.29
2022-09-03T09:08:11.265Z,59.26
2022-09-03T09:11:23.097Z,58.80
2022-09-03T09:14:08.752Z,58.56
2022-09-03T09:17:16.269Z,57.32
2022-09-03T09:20:12.992Z,56.75
2022-09-03T09:22:48.741Z,55.35
2022-09-03T09:25:30.195Z,53.94
2022-09-03T09:28:32.192Z,52.15
2022-09-03T09:31:13.823Z,50.60
2022-09-03T09:33:52.119Z,48.70
2022-09-03T09:36:35.062Z,47.85
2022-09-03T09:39:21.065Z,46.72
2022-09-03T09:42:18.905Z,46.63
2022-09-03T09:44:53.710Z,45.38
2022-09-03T09:47:45.019Z,44.90
2022-09-03T09:50:30.635Z,44.16
2022-09-03T09:53:30.831Z,43.06
2022-09-03T09:56:04.990Z,42.15
2022-09-03T09:58:39.474Z,40.99
2022-09-03T10:01:27.650Z,40.00
2022-09-03T10:04:32.882Z,38.94
2022-09-03T10:07:44.899Z,39.22
2022-09-03T10:10:20.981Z,38.42
2022-09-03T10:13:12.035Z,37.71
2022-09-03T10:15:54.627Z,37.52
2022-09-03T10:18:34.177Z,36.47
2022-09-03T10:21:28.051Z,35.92
2022-09-03T10:24:28.083Z,35.40
2022-09-03T10:27:14.815Z,34.99
2022-09-03T10:29:55.732Z,34.42
2022-09-03T10:33:14.210Z,35.21
2022-09-03T10:36:28.116Z,34.36
2022-09-03T10:39:22.020Z,34.40
2022-09-03T10:42:13.253Z,33.65
2022-09-03T10:45:13.782Z,33.32
2022-09-03T10:48:33.586Z,33.70
2022-09-03T10:51:49.240Z,33.44
2022-09-03T10:54:35.071Z,32.88
2022-09-03T10:57:26.487Z,32.72
2022-09-03T11:00:14.576Z,32.05
2022-09-03T11:02:50.239Z,30.25
2022-09-03T11:09:23.883Z,29.18
2022-09-03T11:12:12.068Z,30.21
2022-09-03T11:14:50.637Z,30.73
2022-09-03T11:17:43.352Z,31.03
2022-09-03T11:20:28.048Z,31.26
2022-09-03T11:23:12.272Z,30.88
2022-09-03T11:28:59.369Z,31.27
2022-09-03T11:31:39.731Z,31.68
2022-09-03T11:34:23.389Z,31.44
2022-09-03T11:36:50.702Z,31.49
2022-09-03T11:39:24.852Z,31.09
2022-09-03T11:42:07.901Z,30.34
2022-09-03T11:44:48.430Z,30.28
2022-09-03T11:47:38.746Z,30.23
2022-09-03T11:50:24.108Z,29.50
2022-09-03T11:52:53.480Z,28.67
2022-09-03T11:55:26.455Z,28.13
2022-09-03T11:57:53.782Z,27.08
2022-09-03T12:00:25.173Z,25.93
2022-09-03T12:02:59.072Z,25.25
2022-09-03T12:05:44.288Z,24.80
2022-09-03T12:08:47.381Z,23.91
2022-09-03T12:11:14.317Z,22.94
2022-09-03T12:14:35.204Z,22.54
2022-09-03T12:18:16.166Z,21.87
2022-09-03T12:20:44.347Z,20.64
2022-09-03T12:23:13.176Z,19.57
2022-09-03T12:25:49.492Z,19.66
2022-09-03T12:28:23.701Z,18.78
2022-09-03T12:30:53.834Z,18.21
2022-09-03T12:33:23.398Z,18.20
2022-09-03T12:35:58.744Z,18.06
2022-09-03T12:38:27.617Z,17.78
2022-09-03T12:43:46.184Z,17.84
2022-09-03T12:46:17.651Z,17.32
2022-09-03T12:51:52.059Z,16.85
2022-09-03T12:54:21.290Z,16.70
2022-09-03T12:56:56.458Z,17.17
2022-09-03T12:59:25.460Z,17.39
2022-09-03T13:01:56.827Z,16.71
2022-09-03T13:04:36.633Z,16.98
2022-09-03T13:07:08.173Z,16.80
2022-09-03T13:09:38.307Z,17.66
2022-09-03T13:12:06.053Z,19.49
2022-09-03T13:14:48.288Z,22.14
2022-09-03T13:17:42.961Z,23.19
2022-09-03T13:20:22.950Z,24.62
2022-09-03T13:23:20.548Z,25.25
2022-09-03T13:26:24.149Z,26.19
2022-09-03T13:28:58.423Z,27.27
2022-09-03T13:31:42.811Z,28.29
2022-09-03T13:34:22.486Z,28.52
2022-09-03T13:37:06.045Z,28.84
2022-09-03T13:39:52.660Z,29.37
2022-09-03T13:42:42.828Z,30.13
2022-09-03T13:45:38.798Z,30.37
2022-09-03T13:48:50.947Z,30.92
2022-09-03T13:51:43.706Z,31.50
2022-09-03T13:54:47.776Z,31.41
2022-09-03T13:57:35.061Z,32.56
2022-09-03T14:00:22.182Z,32.97
2022-09-03T14:02:58.219Z,32.62
2022-09-03T14:05:34.119Z,33.00
2022-09-03T14:08:22.815Z,33.32
2022-09-03T14:11:02.122Z,33.15
2022-09-03T14:14:02.892Z,32.92
2022-09-03T14:16:29.927Z,33.08
2022-09-03T14:19:11.777Z,33.14
2022-09-03T14:22:06.298Z,33.80
2022-09-03T14:24:55.706Z,33.93
2022-09-03T14:27:31.770Z,33.26
2022-09-03T14:30:06.711Z,33.44
2022-09-03T14:33:05.988Z,33.55
2022-09-03T14:35:46.122Z,33.77
2022-09-03T14:38:30.884Z,33.60
2022-09-03T14:41:20.860Z,34.34
2022-09-03T14:44:18.757Z,34.22
2022-09-03T14:47:08.500Z,34.67
2022-09-03T14:49:57.871Z,35.16
2022-09-03T14:52:24.556Z,35.48
2022-09-03T14:55:03.891Z,36.00
2022-09-03T14:57:55.272Z,35.95
2022-09-03T15:00:43.540Z,36.01
2022-09-03T15:03:28.276Z,35.95
2022-09-03T15:05:55.073Z,35.74
2022-09-03T15:08:34.002Z,35.24
2022-09-03T15:11:04.177Z,35.93
2022-09-03T15:13:34.890Z,35.34
2022-09-03T15:16:01.751Z,35.24
2022-09-03T15:18:58.986Z,35.61
2022-09-03T15:21:44.014Z,35.56
2022-09-03T15:24:43.796Z,35.62
2022-09-03T15:27:33.942Z,36.08
2022-09-03T15:30:11.208Z,36.47
2022-09-03T15:32:52.056Z,36.04
2022-09-03T15:35:38.299Z,36.53
2022-09-03T15:38:20.928Z,36.92
2022-09-03T15:40:47.675Z,37.07
2022-09-03T15:43:28.088Z,37.39
2022-09-03T15:46:00.223Z,37.72
2022-09-03T15:48:36.108Z,38.17
2022-09-03T15:51:26.274Z,38.57
2022-09-03T15:53:56.331Z,39.46
2022-09-03T15:56:32.765Z,39.10
2022-09-03T15:59:30.030Z,39.54
2022-09-03T16:02:05.885Z,39.66
2022-09-03T16:05:12.606Z,39.16
2022-09-03T16:07:50.333Z,39.74
2022-09-03T16:10:26.477Z,39.94
2022-09-03T16:13:14.938Z,39.72
2022-09-03T16:15:58.018Z,39.28
2022-09-03T16:18:39.365Z,39.26
2022-09-03T16:21:25.947Z,39.80
2022-09-03T16:23:59.078Z,39.70
2022-09-03T16:26:29.725Z,40.04
2022-09-03T16:29:17.459Z,40.20
2022-09-03T16:31:58.098Z,40.61
2022-09-03T16:34:37.484Z,41.62
2022-09-03T16:37:10.085Z,41.22
2022-09-03T16:39:55.655Z,41.34
2022-09-03T16:42:42.807Z,41.54
2022-09-03T16:45:38.274Z,41.75
2022-09-03T16:48:26.847Z,41.89
2022-09-03T16:51:06.673Z,42.45
2022-09-03T16:54:12.226Z,42.74
2022-09-03T16:57:00.462Z,42.40
2022-09-03T16:59:48.505Z,42.94
2022-09-03T17:02:39.872Z,43.04
2022-09-03T17:05:41.284Z,43.38
2022-09-03T17:08:14.487Z,43.86
2022-09-03T17:10:41.349Z,43.89
2022-09-03T17:13:32.517Z,43.97
2022-09-03T17:16:08.382Z,44.45
2022-09-03T17:18:53.302Z,44.20
2022-09-03T17:21:38.811Z,44.53
2022-09-03T17:24:13.778Z,44.41
2022-09-03T17:27:03.519Z,44.57
2022-09-03T17:29:55.726Z,44.97
2022-09-03T17:32:46.265Z,45.08
2022-09-03T17:35:20.223Z,44.89
2022-09-03T17:37:56.726Z,45.10
2022-09-03T17:40:36.771Z,45.13
2022-09-03T17:43:17.155Z,45.18
2022-09-03T17:46:26.323Z,45.26
2022-09-03T17:48:55.961Z,45.72
2022-09-03T17:51:36.041Z,46.20
2022-09-03T17:54:07.615Z,46.18
2022-09-03T17:56:50.079Z,46.26
2022-09-03T17:59:40.843Z,46.64
2022-09-03T18:02:18.275Z,47.48
2022-09-03T18:05:08.253Z,47.55
2022-09-03T18:08:01.026Z,47.50
2022-09-03T18:10:34.662Z,47.56
2022-09-03T18:13:23.742Z,47.90
2022-09-03T18:16:07.508Z,48.01
2022-09-03T18:18:43.169Z,48.78
2022-09-03T18:21:32.835Z,49.04
2022-09-03T18:24:26.355Z,49.18
2022-09-03T18:27:18.332Z,49.58
2022-09-03T18:30:08.872Z,49.67
2022-09-03T18:32:54.380Z,49.91
2022-09-03T18:35:40.243Z,50.14
2022-09-03T18:38:25.422Z,50.56
2022-09-03T18:41:58.477Z,50.26
2022-09-03T18:45:20.320Z,50.56
2022-09-03T18:48:25.252Z,51.10
2022-09-03T18:51:24.901Z,51.25
2022-09-03T18:54:25.371Z,51.08
2022-09-03T18:57:12.238Z,51.66
2022-09-03T19:00:26.677Z,52.16
2022-09-03T19:03:29.945Z,52.26
2022-09-03T19:06:50.794Z,52.09
2022-09-03T19:10:07.151Z,52.03
2022-09-03T19:13:04.758Z,52.05
2022-09-03T19:16:16.142Z,52.36
2022-09-03T19:19:22.871Z,52.34
2022-09-03T19:22:15.541Z,52.32
2022-09-03T19:25:01.207Z,52.37
2022-09-03T19:28:00.468Z,52.56
2022-09-03T19:31:13.797Z,52.32
2022-09-03T19:34:17.805Z,52.37
2022-09-03T19:37:18.181Z,52.17
2022-09-03T19:40:23.777Z,51.92
2022-09-03T19:46:13.182Z,52.25
2022-09-03T19:49:16.981Z,51.89
2022-09-03T19:52:49.007Z,52.13
2022-09-03T19:55:44.224Z,52.53
2022-09-03T19:58:43.130Z,52.66
2022-09-03T20:01:29.844Z,52.84
2022-09-03T20:04:18.422Z,52.84
2022-09-03T20:07:06.145Z,53.27
2022-09-03T20:09:58.752Z,52.99
2022-09-03T20:12:31.564Z,53.12
2022-09-03T20:14:58.468Z,53.28
2022-09-03T20:17:31.589Z,53.59
2022-09-03T20:20:07.431Z,53.90
2022-09-03T20:22:54.464Z,54.08
2022-09-03T20:25:41.406Z,54.18
2022-09-03T20:28:31.982Z,54.19
2022-09-03T20:31:05.811Z,54.73
2022-09-03T20:33:39.031Z,54.57
2022-09-03T20:36:08.762Z,54.74
2022-09-03T20:39:16.149Z,54.79
2022-09-03T20:41:59.011Z,55.03
2022-09-03T20:44:38.093Z,54.99
2022-09-03T20:47:31.175Z,55.09
2022-09-03T20:50:22.000Z,54.90
2022-09-03T20:52:56.883Z,55.04
2022-09-03T20:55:29.217Z,55.54
2022-09-03T20:58:18.711Z,55.75
2022-09-03T21:00:53.981Z,55.45
2022-09-03T21:04:08.123Z,55.77
2022-09-03T21:06:50.622Z,55.86
2022-09-03T21:09:23.566Z,55.87
2022-09-03T21:12:05.113Z,56.01
2022-09-03T21:14:47.038Z,56.04
2022-09-03T21:17:28.187Z,56.12
2022-09-03T21:20:21.774Z,56.42
2022-09-03T21:22:53.045Z,56.56
2022-09-03T21:25:33.070Z,56.59
2022-09-03T21:28:06.036Z,56.53
2022-09-03T21:30:38.280Z,56.69
2022-09-03T21:33:11.994Z,56.77
2022-09-03T21:35:53.572Z,56.25
2022-09-03T21:38:31.678Z,56.39
2022-09-03T21:41:20.346Z,56.76
2022-09-03T21:43:57.626Z,56.99
2022-09-03T21:46:57.044Z,56.93
2022-09-03T21:49:29.717Z,56.87
2022-09-03T21:52:11.626Z,57.13
2022-09-03T21:54:38.567Z,56.98
2022-09-03T21:57:23.586Z,57.31
2022-09-03T22:00:09.288Z,56.98
2022-09-03T22:02:36.549Z,57.11
2022-09-03T22:05:05.198Z,57.05
2022-09-03T22:08:24.681Z,56.97
2022-09-03T22:11:02.212Z,57.35
2022-09-03T22:13:35.953Z,57.16
2022-09-03T22:16:39.474Z,57.37
2022-09-03T22:19:09.228Z,57.63
2022-09-03T22:21:47.894Z,57.54
2022-09-03T22:24:26.722Z,57.18
2022-09-03T22:27:15.729Z,57.47
2022-09-03T22:29:51.702Z,57.51
2022-09-03T22:32:33.830Z,57.52
2022-09-03T22:35:25.079Z,57.98
2022-09-03T22:38:00.983Z,57.75
2022-09-03T22:40:36.813Z,57.67
2022-09-03T22:43:12.525Z,57.87
2022-09-03T22:45:58.865Z,57.76
2022-09-03T22:48:51.651Z,57.41
2022-09-03T22:51:21.740Z,57.51
2022-09-03T22:54:00.857Z,57.84
2022-09-03T22:56:32.467Z,57.66
2022-09-03T22:59:19.517Z,57.23
2022-09-03T23:02:00.649Z,57.50
2022-09-03T23:04:40.201Z,57.40
2022-09-03T23:07:21.854Z,57.08
2022-09-03T23:09:55.854Z,56.89
2022-09-03T23:12:35.649Z,57.32
2022-09-03T23:15:06.632Z,57.52
2022-09-03T23:17:40.859Z,57.31
2022-09-03T23:20:22.648Z,57.86
2022-09-03T23:23:00.101Z,58.14
2022-09-03T23:25:31.491Z,58.12
2022-09-03T23:28:10.097Z,57.94
2022-09-03T23:30:37.442Z,58.02
2022-09-03T23:33:04.318Z,58.51
2022-09-03T23:35:42.699Z,58.27
2022-09-03T23:38:54.743Z,58.33
2022-09-03T23:41:34.853Z,58.40
2022-09-03T23:44:09.157Z,58.11
2022-09-03T23:46:53.581Z,58.36
2022-09-03T23:49:29.431Z,58.47
2022-09-03T23:52:19.362Z,58.19
2022-09-03T23:54:58.482Z,58.38
2022-09-03T23:57:35.803Z,58.10
